| time (UTC) | temp C | wind direction | speed KPH | gust KPH | rain 1hr cm | rain 24hr cm | rain mn cm | humidity % | barometer mb |
| 20260510060901 | 8 | 111 | 0.0 | 1.6 | 0.00 | 0.00 | 0.00 | 78 | 935.7 |
| 20260510060401 | 9 | 64 | 3.2 | 4.8 | 0.00 | 0.00 | 0.00 | 76 | 935.7 |
| 20260510055901 | 9 | 64 | 3.2 | 4.8 | 0.00 | 0.00 | 0.00 | 76 | 935.7 |
| 20260510055402 | 9 | 64 | 3.2 | 4.8 | 0.00 | 0.00 | 0.00 | 76 | 935.7 |
| 20260510054901 | 9 | 44 | 3.2 | 4.8 | 0.00 | 0.00 | 0.00 | 75 | 935.7 |
| 20260510054401 | 9 | 46 | 4.8 | 4.8 | 0.00 | 0.00 | 0.00 | 74 | 935.7 |
| 20260510053901 | 9 | 33 | 4.8 | 4.8 | 0.00 | 0.00 | 0.00 | 76 | 935.7 |
| 20260510053402 | 10 | 37 | 0.0 | 0.0 | 0.00 | 0.00 | 0.00 | 75 | 936.0 |
| 20260510052902 | 11 | 39 | 4.8 | 6.4 | 0.00 | 0.00 | 0.00 | 69 | 935.7 |
| 20260510052402 | 11 | 39 | 4.8 | 6.4 | 0.00 | 0.00 | 0.00 | 69 | 935.7 |
| 20260510051452 | 11 | 39 | 4.8 | 6.4 | 0.00 | 0.00 | 0.00 | 69 | 936.0 |
| 20260510050902 | 11 | 39 | 4.8 | 6.4 | 0.00 | 0.00 | 0.00 | 69 | 936.0 |
| 20260510050401 | 11 | 28 | 4.8 | 6.4 | 0.00 | 0.00 | 0.00 | 70 | 935.7 |
| 20260510045902 | 11 | 38 | 6.4 | 6.4 | 0.00 | 0.00 | 0.00 | 69 | 936.0 |
| 20260510045401 | 11 | 17 | 3.2 | 4.8 | 0.00 | 0.00 | 0.00 | 68 | 935.7 |
| 20260510044901 | 11 | 59 | 4.8 | 4.8 | 0.00 | 0.00 | 0.00 | 68 | 935.7 |
| 20260510044401 | 11 | 53 | 4.8 | 6.4 | 0.00 | 0.00 | 0.00 | 68 | 935.7 |
| 20260510043902 | 11 | 39 | 6.4 | 8.0 | 0.00 | 0.00 | 0.00 | 66 | 935.7 |
| 20260510043401 | 11 | 38 | 4.8 | 4.8 | 0.00 | 0.00 | 0.00 | 64 | 936.0 |
| 20260510042901 | 12 | 85 | 1.6 | 4.8 | 0.00 | 0.00 | 0.00 | 63 | 935.7 |
| 20260510042402 | 12 | 107 | 3.2 | 4.8 | 0.00 | 0.00 | 0.00 | 64 | 935.7 |
| 20260510041901 | 12 | 126 | 6.4 | 6.4 | 0.00 | 0.00 | 0.00 | 63 | 935.7 |
| 20260510041401 | 12 | 70 | 3.2 | 4.8 | 0.00 | 0.00 | 0.00 | 62 | 935.3 |
| 20260510040903 | 13 | 67 | 3.2 | 3.2 | 0.00 | 0.00 | 0.00 | 59 | 935.7 |
| 20260510040401 | 14 | 81 | 1.6 | 3.2 | 0.00 | 0.00 | 0.00 | 53 | 935.7 |
| 20260510035901 | 14 | 81 | 1.6 | 3.2 | 0.00 | 0.00 | 0.00 | 53 | 935.3 |
| 20260510035401 | 14 | 81 | 1.6 | 3.2 | 0.00 | 0.00 | 0.00 | 53 | 935.3 |
| 20260510034902 | 14 | 81 | 1.6 | 3.2 | 0.00 | 0.00 | 0.00 | 53 | 935.3 |
| 20260510034401 | 14 | 81 | 1.6 | 3.2 | 0.00 | 0.00 | 0.00 | 53 | 935.3 |
| 20260510033902 | 15 | 79 | 3.2 | 3.2 | 0.00 | 0.00 | 0.00 | 53 | 935.3 |
| 20260510033401 | 15 | 69 | 1.6 | 1.6 | 0.00 | 0.00 | 0.00 | 51 | 935.3 |
| 20260510032902 | 15 | 123 | 3.2 | 3.2 | 0.00 | 0.00 | 0.00 | 51 | 935.3 |
| 20260510032402 | 15 | 62 | 3.2 | 4.8 | 0.00 | 0.00 | 0.00 | 50 | 935.3 |
| 20260510031904 | 16 | 38 | 0.0 | 0.0 | 0.00 | 0.00 | 0.00 | 48 | 935.3 |
| 20260510031402 | 16 | 40 | 3.2 | 4.8 | 0.00 | 0.00 | 0.00 | 46 | 935.3 |
| 20260510030901 | 16 | 18 | 4.8 | 4.8 | 0.00 | 0.00 | 0.00 | 45 | 935.0 |
| 20260510030401 | 17 | 37 | 4.8 | 6.4 | 0.00 | 0.00 | 0.00 | 44 | 935.0 |
| 20260510025902 | 17 | 10 | 3.2 | 6.4 | 0.00 | 0.00 | 0.00 | 43 | 935.3 |
| 20260510025401 | 17 | 26 | 6.4 | 6.4 | 0.00 | 0.00 | 0.00 | 42 | 935.3 |
| 20260510024901 | 17 | 7 | 4.8 | 6.4 | 0.00 | 0.00 | 0.00 | 43 | 935.3 |
| 20260510024401 | 18 | 2 | 4.8 | 9.7 | 0.00 | 0.00 | 0.00 | 41 | 935.0 |
| 20260510023902 | 18 | 8 | 0.0 | 4.8 | 0.00 | 0.00 | 0.00 | 38 | 935.0 |
| 20260510023401 | 18 | 12 | 0.0 | 3.2 | 0.00 | 0.00 | 0.00 | 38 | 935.0 |
| 20260510022902 | 18 | 336 | 1.6 | 1.6 | 0.00 | 0.00 | 0.00 | 37 | 935.0 |
| 20260510022401 | 19 | 61 | 0.0 | 3.2 | 0.00 | 0.00 | 0.00 | 36 | 935.0 |
| 20260510021901 | 19 | 41 | 3.2 | 3.2 | 0.00 | 0.00 | 0.00 | 35 | 935.0 |
| 20260510021401 | 20 | 38 | 1.6 | 3.2 | 0.00 | 0.00 | 0.00 | 35 | 935.0 |
| 20260510020901 | 20 | 117 | 1.6 | 3.2 | 0.00 | 0.00 | 0.00 | 35 | 935.0 |
| 20260510020402 | 20 | 282 | 11.3 | 11.3 | 0.00 | 0.00 | 0.00 | 34 | 935.0 |
| 20260510015901 | 20 | 343 | 8.0 | 9.7 | 0.00 | 0.00 | 0.00 | 34 | 934.6 |
| 20260510015402 | 20 | 345 | 4.8 | 8.0 | 0.00 | 0.00 | 0.00 | 34 | 935.0 |
| 20260510014902 | 20 | 322 | 6.4 | 14.5 | 0.00 | 0.00 | 0.00 | 33 | 935.0 |
| 20260510014401 | 20 | 349 | 8.0 | 16.1 | 0.00 | 0.00 | 0.00 | 32 | 935.0 |
| 20260510013901 | 20 | 301 | 14.5 | 17.7 | 0.00 | 0.00 | 0.00 | 31 | 935.0 |
| 20260510013401 | 20 | 282 | 11.3 | 17.7 | 0.00 | 0.00 | 0.00 | 32 | 935.0 |
| 20260510012902 | 20 | 337 | 11.3 | 16.1 | 0.00 | 0.00 | 0.00 | 31 | 935.0 |
| 20260510012402 | 20 | 277 | 6.4 | 16.1 | 0.00 | 0.00 | 0.00 | 31 | 935.0 |
| 20260510011901 | 20 | 323 | 11.3 | 19.3 | 0.00 | 0.00 | 0.00 | 32 | 935.0 |
| 20260510011401 | 20 | 349 | 14.5 | 19.3 | 0.00 | 0.00 | 0.00 | 31 | 935.3 |
| 20260510010902 | 20 | 335 | 9.7 | 17.7 | 0.00 | 0.00 | 0.00 | 32 | 935.3 |
| 20260510010402 | 20 | 313 | 17.7 | 19.3 | 0.00 | 0.00 | 0.00 | 31 | 935.0 |
| 20260510005901 | 20 | 326 | 11.3 | 17.7 | 0.00 | 0.00 | 0.00 | 31 | 935.0 |
| 20260510005401 | 20 | 319 | 14.5 | 22.5 | 0.00 | 0.00 | 0.00 | 32 | 935.3 |
| 20260510004901 | 20 | 321 | 19.3 | 19.3 | 0.00 | 0.00 | 0.00 | 31 | 935.0 |
| 20260510004401 | 20 | 328 | 17.7 | 20.9 | 0.00 | 0.00 | 0.00 | 32 | 935.0 |
| 20260510003901 | 20 | 293 | 9.7 | 20.9 | 0.00 | 0.00 | 0.00 | 32 | 935.3 |
| 20260510003402 | 20 | 297 | 1.6 | 16.1 | 0.00 | 0.00 | 0.00 | 33 | 935.0 |
| 20260510002902 | 20 | 335 | 9.7 | 19.3 | 0.00 | 0.00 | 0.00 | 32 | 935.0 |
| 20260510002402 | 20 | 337 | 20.9 | 25.7 | 0.00 | 0.00 | 0.00 | 32 | 935.0 |
| 20260510001902 | 20 | 327 | 11.3 | 17.7 | 0.00 | 0.00 | 0.00 | 33 | 935.0 |
| 20260510001401 | 20 | 318 | 16.1 | 24.1 | 0.00 | 0.00 | 0.00 | 32 | 935.0 |
| 20260510000901 | 20 | 292 | 11.3 | 22.5 | 0.00 | 0.00 | 0.00 | 34 | 935.0 |
| 20260510000404 | 20 | 303 | 17.7 | 20.9 | 0.00 | 0.00 | 0.00 | 33 | 935.0 |
| 20260509235902 | 20 | 332 | 16.1 | 19.3 | 0.00 | 0.00 | 0.00 | 33 | 935.0 |
| 20260509235401 | 20 | 282 | 14.5 | 24.1 | 0.00 | 0.00 | 0.00 | 33 | 935.0 |
| 20260509234901 | 21 | 316 | 12.9 | 19.3 | 0.00 | 0.00 | 0.00 | 33 | 935.0 |
| 20260509234401 | 20 | 307 | 3.2 | 9.7 | 0.00 | 0.00 | 0.00 | 34 | 935.0 |
| 20260509233902 | 20 | 17 | 6.4 | 20.9 | 0.00 | 0.00 | 0.00 | 32 | 935.0 |
| 20260509233401 | 20 | 245 | 6.4 | 14.5 | 0.00 | 0.00 | 0.00 | 31 | 935.0 |
| 20260509232901 | 20 | 316 | 9.7 | 24.1 | 0.00 | 0.00 | 0.00 | 32 | 935.0 |
| 20260509232401 | 20 | 341 | 8.0 | 17.7 | 0.00 | 0.00 | 0.00 | 33 | 935.0 |
| 20260509231901 | 20 | 294 | 8.0 | 17.7 | 0.00 | 0.00 | 0.00 | 33 | 935.0 |
| 20260509231402 | 20 | 334 | 8.0 | 22.5 | 0.00 | 0.00 | 0.00 | 33 | 935.3 |
| 20260509230902 | 20 | 244 | 6.4 | 17.7 | 0.00 | 0.00 | 0.00 | 34 | 935.0 |
| 20260509230401 | 20 | 316 | 4.8 | 8.0 | 0.00 | 0.00 | 0.00 | 32 | 935.0 |
| 20260509225902 | 20 | 328 | 3.2 | 12.9 | 0.00 | 0.00 | 0.00 | 31 | 935.3 |
| 20260509225402 | 20 | 322 | 4.8 | 16.1 | 0.00 | 0.00 | 0.00 | 32 | 935.3 |
| 20260509224901 | 21 | 260 | 4.8 | 20.9 | 0.00 | 0.00 | 0.00 | 31 | 935.0 |
| 20260509224402 | 20 | 268 | 8.0 | 9.7 | 0.00 | 0.00 | 0.00 | 34 | 935.3 |
| 20260509223902 | 20 | 286 | 9.7 | 17.7 | 0.00 | 0.00 | 0.00 | 32 | 935.3 |
| 20260509223402 | 20 | 344 | 16.1 | 19.3 | 0.00 | 0.00 | 0.00 | 33 | 935.3 |
| 20260509222902 | 20 | 320 | 3.2 | 17.7 | 0.00 | 0.00 | 0.00 | 34 | 935.3 |
| 20260509222401 | 20 | 334 | 11.3 | 16.1 | 0.00 | 0.00 | 0.00 | 34 | 935.3 |
| 20260509221901 | 20 | 327 | 12.9 | 16.1 | 0.00 | 0.00 | 0.00 | 36 | 935.3 |
| 20260509221401 | 20 | 294 | 11.3 | 17.7 | 0.00 | 0.00 | 0.00 | 36 | 935.3 |
| 20260509220901 | 20 | 140 | 6.4 | 11.3 | 0.00 | 0.00 | 0.00 | 36 | 935.3 |
| 20260509220402 | 20 | 235 | 1.6 | 9.7 | 0.00 | 0.00 | 0.00 | 36 | 935.3 |
| 20260509215902 | 20 | 338 | 3.2 | 19.3 | 0.00 | 0.00 | 0.00 | 34 | 935.7 |
| 20260509215402 | 20 | 290 | 9.7 | 14.5 | 0.00 | 0.00 | 0.00 | 37 | 935.3 |
| 20260509214902 | 20 | 352 | 8.0 | 19.3 | 0.00 | 0.00 | 0.00 | 38 | 935.7 |
| 20260509214401 | 20 | 10 | 9.7 | 19.3 | 0.00 | 0.00 | 0.00 | 35 | 935.7 |
| 20260509213901 | 20 | 26 | 14.5 | 14.5 | 0.00 | 0.00 | 0.00 | 37 | 935.7 |
| 20260509213402 | 20 | 339 | 9.7 | 16.1 | 0.00 | 0.00 | 0.00 | 36 | 935.7 |
| 20260509212903 | 20 | 341 | 16.1 | 19.3 | 0.00 | 0.00 | 0.00 | 36 | 936.0 |
| 20260509212401 | 19 | 353 | 4.8 | 16.1 | 0.00 | 0.00 | 0.00 | 38 | 936.0 |
| 20260509211901 | 20 | 299 | 16.1 | 16.1 | 0.00 | 0.00 | 0.00 | 38 | 936.0 |
| 20260509211401 | 19 | 316 | 8.0 | 14.5 | 0.00 | 0.00 | 0.00 | 37 | 936.0 |
| 20260509210902 | 19 | 313 | 9.7 | 14.5 | 0.00 | 0.00 | 0.00 | 36 | 935.7 |
| 20260509210401 | 19 | 320 | 9.7 | 16.1 | 0.00 | 0.00 | 0.00 | 36 | 936.0 |
| 20260509205902 | 19 | 153 | 6.4 | 20.9 | 0.00 | 0.00 | 0.00 | 35 | 936.0 |
| 20260509205401 | 19 | 299 | 11.3 | 16.1 | 0.00 | 0.00 | 0.00 | 37 | 936.0 |
| 20260509204901 | 19 | 317 | 16.1 | 17.7 | 0.00 | 0.00 | 0.00 | 39 | 936.0 |
| 20260509204401 | 18 | 314 | 6.4 | 16.1 | 0.00 | 0.00 | 0.00 | 36 | 936.3 |
| 20260509203901 | 20 | 308 | 14.5 | 24.1 | 0.00 | 0.00 | 0.00 | 35 | 936.3 |
| 20260509203402 | 19 | 160 | 9.7 | 11.3 | 0.00 | 0.00 | 0.00 | 39 | 936.3 |
| 20260509202903 | 19 | 332 | 14.5 | 22.5 | 0.00 | 0.00 | 0.00 | 37 | 936.3 |
| 20260509202402 | 20 | 298 | 8.0 | 17.7 | 0.00 | 0.00 | 0.00 | 41 | 936.3 |
| 20260509201901 | 19 | 327 | 14.5 | 14.5 | 0.00 | 0.00 | 0.00 | 37 | 936.3 |
| 20260509201401 | 19 | 291 | 4.8 | 14.5 | 0.00 | 0.00 | 0.00 | 35 | 936.3 |
| 20260509200902 | 20 | 324 | 12.9 | 19.3 | 0.00 | 0.00 | 0.00 | 37 | 936.3 |
| 20260509200401 | 20 | 326 | 11.3 | 14.5 | 0.00 | 0.00 | 0.00 | 36 | 936.3 |
| 20260509195902 | 19 | 170 | 14.5 | 16.1 | 0.00 | 0.00 | 0.00 | 37 | 936.3 |
| 20260509195401 | 18 | 297 | 8.0 | 20.9 | 0.00 | 0.00 | 0.00 | 39 | 936.3 |
| 20260509194902 | 18 | 311 | 12.9 | 19.3 | 0.00 | 0.00 | 0.00 | 37 | 936.3 |
| 20260509194402 | 18 | 340 | 9.7 | 12.9 | 0.00 | 0.00 | 0.00 | 38 | 936.3 |
| 20260509193902 | 19 | 280 | 9.7 | 14.5 | 0.00 | 0.00 | 0.00 | 38 | 936.3 |
| 20260509193402 | 18 | 283 | 3.2 | 9.7 | 0.00 | 0.00 | 0.00 | 37 | 936.3 |
| 20260509192903 | 18 | 309 | 11.3 | 11.3 | 0.00 | 0.00 | 0.00 | 38 | 936.7 |
| 20260509192402 | 18 | 317 | 9.7 | 16.1 | 0.00 | 0.00 | 0.00 | 38 | 936.7 |
| 20260509191901 | 18 | 35 | 1.6 | 9.7 | 0.00 | 0.00 | 0.00 | 41 | 936.7 |
| 20260509191402 | 18 | 295 | 8.0 | 17.7 | 0.00 | 0.00 | 0.00 | 38 | 936.7 |
| 20260509190902 | 18 | 259 | 8.0 | 12.9 | 0.00 | 0.00 | 0.00 | 40 | 936.7 |
| 20260509190402 | 18 | 296 | 12.9 | 14.5 | 0.00 | 0.00 | 0.00 | 38 | 936.7 |
| 20260509185902 | 18 | 20 | 9.7 | 14.5 | 0.00 | 0.00 | 0.00 | 39 | 936.7 |
| 20260509185402 | 17 | 327 | 6.4 | 14.5 | 0.00 | 0.00 | 0.00 | 37 | 936.7 |
| 20260509184902 | 17 | 222 | 6.4 | 17.7 | 0.00 | 0.00 | 0.00 | 36 | 936.7 |
| 20260509184401 | 17 | 29 | 8.0 | 8.0 | 0.00 | 0.00 | 0.00 | 38 | 936.3 |
| 20260509183902 | 17 | 32 | 11.3 | 16.1 | 0.00 | 0.00 | 0.00 | 38 | 936.7 |
| 20260509183401 | 17 | 20 | 11.3 | 16.1 | 0.00 | 0.00 | 0.00 | 36 | 936.7 |
| 20260509182902 | 17 | 19 | 11.3 | 12.9 | 0.00 | 0.00 | 0.00 | 37 | 936.7 |
| 20260509182402 | 17 | 32 | 11.3 | 16.1 | 0.00 | 0.00 | 0.00 | 36 | 937.0 |
| 20260509181901 | 17 | 333 | 11.3 | 16.1 | 0.00 | 0.00 | 0.00 | 36 | 936.7 |
| 20260509181402 | 17 | 22 | 11.3 | 16.1 | 0.00 | 0.00 | 0.00 | 36 | 936.7 |
| 20260509180902 | 17 | 2 | 8.0 | 9.7 | 0.00 | 0.00 | 0.00 | 36 | 936.7 |
| 20260509180402 | 16 | 20 | 1.6 | 14.5 | 0.00 | 0.00 | 0.00 | 36 | 936.7 |
| 20260509175904 | 17 | 34 | 8.0 | 17.7 | 0.00 | 0.00 | 0.00 | 36 | 936.7 |
| 20260509175401 | 16 | 122 | 4.8 | 8.0 | 0.00 | 0.00 | 0.00 | 35 | 936.7 |
| 20260509174901 | 16 | 357 | 8.0 | 16.1 | 0.00 | 0.00 | 0.00 | 36 | 936.7 |
| 20260509174402 | 16 | 107 | 3.2 | 11.3 | 0.00 | 0.00 | 0.00 | 38 | 937.0 |
| 20260509173902 | 17 | 325 | 8.0 | 11.3 | 0.00 | 0.00 | 0.00 | 36 | 936.7 |
| 20260509173403 | 16 | 261 | 4.8 | 4.8 | 0.00 | 0.00 | 0.00 | 40 | 937.0 |
| 20260509172902 | 15 | 311 | 3.2 | 4.8 | 0.00 | 0.00 | 0.00 | 39 | 936.7 |
| 20260509172402 | 15 | 267 | 4.8 | 8.0 | 0.00 | 0.00 | 0.00 | 37 | 937.0 |
| 20260509171903 | 16 | 347 | 6.4 | 12.9 | 0.00 | 0.00 | 0.00 | 37 | 937.0 |
| 20260509171402 | 15 | 258 | 0.0 | 4.8 | 0.00 | 0.00 | 0.00 | 38 | 937.0 |
| 20260509170902 | 15 | 277 | 3.2 | 4.8 | 0.00 | 0.00 | 0.00 | 38 | 937.0 |
| 20260509170401 | 15 | 329 | 8.0 | 8.0 | 0.00 | 0.00 | 0.00 | 39 | 937.0 |
| 20260509165902 | 15 | 33 | 8.0 | 11.3 | 0.00 | 0.00 | 0.00 | 39 | 937.0 |
| 20260509165402 | 15 | 5 | 8.0 | 9.7 | 0.00 | 0.00 | 0.00 | 40 | 937.0 |
| 20260509164904 | 15 | 332 | 6.4 | 11.3 | 0.00 | 0.00 | 0.00 | 40 | 937.0 |
| 20260509164402 | 15 | 303 | 9.7 | 12.9 | 0.00 | 0.00 | 0.00 | 39 | 937.0 |
| 20260509163902 | 15 | 342 | 6.4 | 11.3 | 0.00 | 0.00 | 0.00 | 37 | 937.0 |
| 20260509163402 | 15 | 33 | 6.4 | 9.7 | 0.00 | 0.00 | 0.00 | 39 | 937.0 |
| 20260509162902 | 15 | 95 | 4.8 | 8.0 | 0.00 | 0.00 | 0.00 | 39 | 937.0 |
| 20260509162402 | 15 | 37 | 6.4 | 9.7 | 0.00 | 0.00 | 0.00 | 41 | 937.0 |
| 20260509161902 | 15 | 50 | 8.0 | 12.9 | 0.00 | 0.00 | 0.00 | 40 | 937.0 |
| 20260509161402 | 14 | 311 | 0.0 | 9.7 | 0.00 | 0.00 | 0.00 | 42 | 937.0 |
| 20260509160903 | 14 | 5 | 3.2 | 8.0 | 0.00 | 0.00 | 0.00 | 40 | 937.0 |
| 20260509160402 | 15 | 5 | 8.0 | 9.7 | 0.00 | 0.00 | 0.00 | 42 | 937.0 |
| 20260509155904 | 14 | 352 | 1.6 | 6.4 | 0.00 | 0.00 | 0.00 | 45 | 937.0 |
| 20260509155402 | 14 | 7 | 3.2 | 8.0 | 0.00 | 0.00 | 0.00 | 45 | 937.4 |
| 20260509154903 | 13 | 246 | 1.6 | 8.0 | 0.00 | 0.00 | 0.00 | 49 | 937.0 |
| 20260509154401 | 13 | 145 | 3.2 | 4.8 | 0.00 | 0.00 | 0.00 | 57 | 937.0 |
| 20260509153901 | 12 | 44 | 0.0 | 3.2 | 0.00 | 0.00 | 0.00 | 61 | 937.0 |
| 20260509153401 | 12 | 216 | 0.0 | 4.8 | 0.00 | 0.00 | 0.00 | 64 | 937.0 |
| 20260509152901 | 12 | 126 | 1.6 | 4.8 | 0.00 | 0.00 | 0.00 | 64 | 937.0 |
| 20260509152402 | 12 | 133 | 4.8 | 4.8 | 0.00 | 0.00 | 0.00 | 64 | 937.0 |
| 20260509151903 | 12 | 65 | 3.2 | 6.4 | 0.00 | 0.00 | 0.00 | 64 | 937.0 |
| 20260509151402 | 12 | 41 | 3.2 | 3.2 | 0.00 | 0.00 | 0.00 | 68 | 937.0 |
| 20260509150904 | 11 | 139 | 1.6 | 4.8 | 0.00 | 0.00 | 0.00 | 68 | 937.0 |
| 20260509150403 | 11 | 67 | 0.0 | 3.2 | 0.00 | 0.00 | 0.00 | 70 | 937.0 |
| 20260509145903 | 10 | 132 | 3.2 | 4.8 | 0.00 | 0.00 | 0.00 | 72 | 937.0 |
| 20260509145401 | 10 | 188 | 1.6 | 3.2 | 0.00 | 0.00 | 0.00 | 75 | 937.0 |
| 20260509144902 | 10 | 67 | 3.2 | 4.8 | 0.00 | 0.00 | 0.00 | 76 | 937.0 |
| 20260509143917 | 8 | 23 | 4.8 | 6.4 | 0.00 | 0.00 | 0.00 | 81 | 937.0 |
| 20260509143402 | 8 | 169 | 1.6 | 6.4 | 0.00 | 0.00 | 0.00 | 82 | 937.0 |
| 20260509142903 | 8 | 36 | 8.0 | 9.7 | 0.00 | 0.00 | 0.00 | 81 | 937.0 |
| 20260509142405 | 6 | 58 | 3.2 | 4.8 | 0.00 | 0.00 | 0.00 | 88 | 937.0 |
| 20260509141901 | 6 | 315 | 0.0 | 3.2 | 0.00 | 0.00 | 0.00 | 92 | 936.7 |
| 20260509141402 | 6 | 5 | 3.2 | 8.0 | 0.00 | 0.00 | 0.00 | 93 | 936.7 |
| 20260509140903 | 5 | 30 | 6.4 | 12.9 | 0.00 | 0.00 | 0.00 | 92 | 936.7 |
| 20260509140402 | 5 | 59 | 8.0 | 8.0 | 0.00 | 0.00 | 0.00 | 92 | 936.7 |
| 20260509135904 | 5 | 126 | 1.6 | 11.3 | 0.00 | 0.00 | 0.00 | 93 | 936.7 |
| 20260509135401 | 5 | 174 | 4.8 | 8.0 | 0.00 | 0.00 | 0.00 | 93 | 937.0 |
| 20260509134901 | 5 | 81 | 4.8 | 8.0 | 0.00 | 0.00 | 0.00 | 94 | 936.7 |
| 20260509134404 | 5 | 32 | 4.8 | 6.4 | 0.00 | 0.00 | 0.00 | 93 | 936.7 |
| 20260509133902 | 5 | 93 | 1.6 | 8.0 | 0.00 | 0.00 | 0.00 | 94 | 936.7 |
| 20260509133402 | 5 | 109 | 3.2 | 8.0 | 0.00 | 0.00 | 0.00 | 93 | 936.3 |
| 20260509132903 | 5 | 35 | 3.2 | 4.8 | 0.00 | 0.00 | 0.00 | 94 | 936.0 |
| 20260509132403 | 5 | 133 | 3.2 | 8.0 | 0.00 | 0.00 | 0.00 | 93 | 936.3 |
| 20260509131901 | 5 | 69 | 4.8 | 11.3 | 0.00 | 0.00 | 0.00 | 94 | 936.0 |
| 20260509131402 | 5 | 38 | 6.4 | 9.7 | 0.00 | 0.00 | 0.00 | 93 | 936.0 |
| 20260509130903 | 5 | 31 | 4.8 | 8.0 | 0.00 | 0.00 | 0.00 | 93 | 936.0 |
| 20260509130404 | 5 | 332 | 6.4 | 11.3 | 0.00 | 0.00 | 0.00 | 93 | 935.7 |
| 20260509125902 | 5 | 71 | 4.8 | 8.0 | 0.00 | 0.00 | 0.00 | 92 | 935.7 |
| 20260509125402 | 5 | 15 | 8.0 | 8.0 | 0.00 | 0.00 | 0.00 | 92 | 935.3 |
| 20260509124901 | 5 | 35 | 3.2 | 6.4 | 0.00 | 0.00 | 0.00 | 91 | 935.3 |
| 20260509124402 | 5 | 109 | 4.8 | 9.7 | 0.00 | 0.00 | 0.00 | 92 | 935.3 |
| 20260509123901 | 6 | 142 | 0.0 | 3.2 | 0.00 | 0.00 | 0.00 | 90 | 935.3 |
| 20260509123402 | 6 | 33 | 6.4 | 12.9 | 0.00 | 0.00 | 0.00 | 90 | 935.3 |
| 20260509122903 | 6 | 112 | 1.6 | 11.3 | 0.00 | 0.00 | 0.00 | 90 | 935.3 |
| 20260509122403 | 6 | 42 | 8.0 | 8.0 | 0.00 | 0.00 | 0.00 | 90 | 935.0 |
| 20260509121904 | 6 | 12 | 3.2 | 3.2 | 0.00 | 0.00 | 0.00 | 90 | 935.0 |
| 20260509121401 | 6 | 49 | 4.8 | 4.8 | 0.00 | 0.00 | 0.00 | 90 | 935.3 |
| 20260509120903 | 6 | 34 | 3.2 | 8.0 | 0.00 | 0.00 | 0.00 | 91 | 935.0 |
| 20260509120405 | 6 | 161 | 1.6 | 6.4 | 0.00 | 0.00 | 0.00 | 91 | 935.0 |
| 20260509115903 | 6 | 111 | 1.6 | 3.2 | 0.00 | 0.00 | 0.00 | 91 | 935.0 |
| 20260509115402 | 6 | 117 | 3.2 | 4.8 | 0.00 | 0.00 | 0.00 | 91 | 935.0 |
| 20260509114901 | 6 | 75 | 1.6 | 3.2 | 0.00 | 0.00 | 0.00 | 90 | 935.0 |
| 20260509114402 | 6 | 31 | 4.8 | 6.4 | 0.00 | 0.00 | 0.00 | 91 | 935.0 |
| 20260509113902 | 6 | 26 | 6.4 | 6.4 | 0.00 | 0.00 | 0.00 | 91 | 934.6 |
| 20260509113402 | 6 | 33 | 6.4 | 8.0 | 0.00 | 0.00 | 0.00 | 91 | 934.6 |
| 20260509112901 | 6 | 26 | 3.2 | 6.4 | 0.00 | 0.00 | 0.00 | 91 | 934.6 |
| 20260509112401 | 6 | 34 | 8.0 | 8.0 | 0.00 | 0.00 | 0.00 | 91 | 934.3 |
| 20260509111902 | 6 | 23 | 4.8 | 6.4 | 0.00 | 0.00 | 0.00 | 91 | 934.6 |
| 20260509111401 | 6 | 353 | 1.6 | 3.2 | 0.00 | 0.00 | 0.00 | 90 | 934.6 |
| 20260509110903 | 6 | 50 | 0.0 | 3.2 | 0.00 | 0.00 | 0.00 | 90 | 934.6 |
| 20260509110404 | 6 | 37 | 4.8 | 8.0 | 0.00 | 0.00 | 0.00 | 89 | 934.3 |
| 20260509105901 | 7 | 29 | 8.0 | 8.0 | 0.00 | 0.00 | 0.00 | 88 | 934.3 |
| 20260509105401 | 7 | 35 | 8.0 | 8.0 | 0.00 | 0.00 | 0.00 | 87 | 934.3 |
| 20260509104902 | 7 | 32 | 4.8 | 4.8 | 0.00 | 0.00 | 0.00 | 86 | 934.0 |
| 20260509104402 | 7 | 41 | 8.0 | 8.0 | 0.00 | 0.00 | 0.00 | 85 | 934.3 |
| 20260509103902 | 7 | 30 | 4.8 | 6.4 | 0.00 | 0.00 | 0.00 | 86 | 934.0 |
| 20260509103401 | 7 | 30 | 4.8 | 6.4 | 0.00 | 0.00 | 0.00 | 86 | 934.0 |
| 20260509102901 | 7 | 59 | 4.8 | 4.8 | 0.00 | 0.00 | 0.00 | 86 | 933.6 |
| 20260509102401 | 7 | 96 | 1.6 | 1.6 | 0.00 | 0.00 | 0.00 | 86 | 934.0 |
| 20260509101903 | 7 | 22 | 1.6 | 4.8 | 0.00 | 0.00 | 0.00 | 85 | 933.6 |
| 20260509101403 | 7 | 129 | 0.0 | 3.2 | 0.00 | 0.00 | 0.00 | 84 | 933.6 |
| 20260509100903 | 7 | 55 | 1.6 | 3.2 | 0.00 | 0.00 | 0.00 | 83 | 933.6 |
| 20260509100403 | 7 | 73 | 3.2 | 4.8 | 0.00 | 0.00 | 0.00 | 83 | 933.6 |
| 20260509095901 | 7 | 152 | 3.2 | 4.8 | 0.00 | 0.00 | 0.00 | 81 | 933.6 |
| 20260509095401 | 8 | 105 | 1.6 | 3.2 | 0.00 | 0.00 | 0.00 | 78 | 933.6 |
| 20260509094901 | 8 | 60 | 6.4 | 8.0 | 0.00 | 0.00 | 0.00 | 79 | 933.6 |
| 20260509094402 | 7 | 99 | 3.2 | 4.8 | 0.00 | 0.00 | 0.00 | 80 | 933.3 |
| 20260509093902 | 8 | 109 | 1.6 | 4.8 | 0.00 | 0.00 | 0.00 | 83 | 933.6 |
| 20260509093402 | 8 | 62 | 4.8 | 8.0 | 0.00 | 0.00 | 0.00 | 83 | 933.3 |
| 20260509092902 | 8 | 50 | 8.0 | 8.0 | 0.00 | 0.00 | 0.00 | 84 | 933.3 |
| 20260509092403 | 8 | 103 | 0.0 | 0.0 | 0.00 | 0.00 | 0.00 | 83 | 933.3 |
| 20260509091902 | 8 | 74 | 3.2 | 4.8 | 0.00 | 0.00 | 0.00 | 83 | 933.3 |
| 20260509091401 | 8 | 117 | 3.2 | 4.8 | 0.00 | 0.00 | 0.00 | 82 | 933.3 |
| 20260509090901 | 8 | 123 | 3.2 | 4.8 | 0.00 | 0.00 | 0.00 | 82 | 933.3 |
| 20260509090401 | 8 | 95 | 3.2 | 4.8 | 0.00 | 0.00 | 0.00 | 81 | 933.3 |
| 20260509085902 | 8 | 130 | 3.2 | 4.8 | 0.00 | 0.00 | 0.00 | 80 | 933.0 |
| 20260509085401 | 8 | 107 | 3.2 | 6.4 | 0.00 | 0.00 | 0.00 | 81 | 933.3 |
| 20260509084903 | 8 | 78 | 3.2 | 4.8 | 0.00 | 0.00 | 0.00 | 81 | 933.0 |
| 20260509084402 | 8 | 78 | 3.2 | 3.2 | 0.00 | 0.00 | 0.00 | 80 | 933.3 |
| 20260509083902 | 8 | 111 | 1.6 | 4.8 | 0.00 | 0.00 | 0.00 | 80 | 933.3 |
| 20260509083405 | 8 | 64 | 4.8 | 4.8 | 0.00 | 0.00 | 0.00 | 80 | 933.0 |
| 20260509082901 | 9 | 104 | 0.0 | 3.2 | 0.00 | 0.00 | 0.00 | 79 | 933.0 |
| 20260509082402 | 9 | 105 | 3.2 | 3.2 | 0.00 | 0.00 | 0.00 | 77 | 933.0 |
| 20260509081903 | 8 | 72 | 3.2 | 4.8 | 0.00 | 0.00 | 0.00 | 77 | 933.0 |
| 20260509081401 | 8 | 64 | 4.8 | 4.8 | 0.00 | 0.00 | 0.00 | 79 | 933.0 |
| 20260509080903 | 8 | 52 | 6.4 | 6.4 | 0.00 | 0.00 | 0.00 | 81 | 933.0 |
| 20260509080403 | 8 | 47 | 4.8 | 4.8 | 0.00 | 0.00 | 0.00 | 81 | 933.0 |
| 20260509075902 | 8 | 89 | 0.0 | 3.2 | 0.00 | 0.00 | 0.00 | 80 | 933.3 |
| 20260509075402 | 8 | 74 | 3.2 | 6.4 | 0.00 | 0.00 | 0.00 | 80 | 933.0 |
| 20260509074901 | 9 | 94 | 1.6 | 3.2 | 0.00 | 0.00 | 0.00 | 78 | 933.0 |
| 20260509074402 | 9 | 145 | 0.0 | 3.2 | 0.00 | 0.00 | 0.00 | 76 | 933.0 |
| 20260509073903 | 9 | 127 | 3.2 | 4.8 | 0.00 | 0.00 | 0.00 | 76 | 933.0 |
| 20260509073401 | 9 | 87 | 3.2 | 4.8 | 0.00 | 0.00 | 0.00 | 75 | 933.0 |
| 20260509072903 | 9 | 138 | 4.8 | 4.8 | 0.00 | 0.00 | 0.00 | 75 | 932.6 |
| 20260509072402 | 9 | 76 | 4.8 | 4.8 | 0.00 | 0.00 | 0.00 | 75 | 933.0 |
| 20260509071902 | 9 | 161 | 1.6 | 4.8 | 0.00 | 0.00 | 0.00 | 74 | 932.6 |
| 20260509071402 | 9 | 82 | 3.2 | 3.2 | 0.00 | 0.00 | 0.00 | 74 | 932.6 |
| 20260509070902 | 9 | 42 | 0.0 | 1.6 | 0.00 | 0.00 | 0.00 | 74 | 932.6 |
| 20260509070402 | 10 | 51 | 1.6 | 3.2 | 0.00 | 0.00 | 0.00 | 74 | 932.6 |
| 20260509065902 | 10 | 114 | 3.2 | 4.8 | 0.00 | 0.00 | 0.00 | 73 | 932.6 |
| 20260509065402 | 10 | 125 | 4.8 | 4.8 | 0.00 | 0.00 | 0.00 | 71 | 932.3 |
| 20260509064902 | 10 | 121 | 3.2 | 4.8 | 0.00 | 0.00 | 0.00 | 72 | 932.6 |
| 20260509064404 | 10 | 93 | 3.2 | 4.8 | 0.00 | 0.00 | 0.00 | 72 | 932.6 |
| 20260509063901 | 10 | 45 | 4.8 | 6.4 | 0.00 | 0.00 | 0.00 | 72 | 932.3 |
| 20260509063403 | 10 | 34 | 3.2 | 4.8 | 0.00 | 0.00 | 0.00 | 72 | 932.6 |
| 20260509062903 | 10 | 21 | 4.8 | 4.8 | 0.00 | 0.00 | 0.00 | 74 | 932.6 |
| 20260509062401 | 10 | 52 | 6.4 | 6.4 | 0.00 | 0.00 | 0.00 | 72 | 932.6 |
| 20260509061901 | 11 | 93 | 1.6 | 3.2 | 0.00 | 0.00 | 0.00 | 71 | 932.6 |
| 20260509061401 | 11 | 86 | 3.2 | 4.8 | 0.00 | 0.00 | 0.00 | 68 | 932.3 |